Time;durP1;ratioP1;P1;durP2;ratioP2;P2;SDS_P1;SDS_P2;PMS_P1;PMS_P2;Temp;Humidity;BMP_temperature;BMP_pressure;BME280_temperature;BME280_humidity;BME280_pressure;Samples;Min_cycle;Max_cycle;Signal;HPM_P1;HPM_P2
2023/03/18 00:00:21;;;;;;;;;18.00;15.67;;;;;13.65;69.42;100756.56;1995746;28;2809599;-75
2023/03/18 00:01:32;;;;;;;;;25.50;20.50;;;;;13.64;69.25;100757.47;2017758;28;2847088;-75
2023/03/18 00:02:42;;;;;;;;;26.00;20.00;;;;;13.63;69.23;100763.69;1997155;28;2848650;-75
2023/03/18 00:03:54;;;;;;;;;25.40;21.60;;;;;13.63;69.26;100762.84;2013665;28;3567976;-75
2023/03/18 00:05:08;;;;;;;;;27.60;23.20;;;;;13.60;69.77;100759.41;2025370;28;3580901;-75
2023/03/18 00:06:20;;;;;;;;;27.00;25.00;;;;;13.60;69.45;100769.13;1994773;28;2841881;-75
2023/03/18 00:07:33;;;;;;;;;23.33;21.33;;;;;13.57;69.06;100764.84;2019219;28;2846055;-75
2023/03/18 00:08:46;;;;;;;;;25.67;21.00;;;;;13.56;69.86;100763.09;2015602;28;3584575;-75
2023/03/18 00:09:57;;;;;;;;;21.00;20.00;;;;;13.54;69.35;100774.63;1989718;28;3568999;-75
2023/03/18 00:11:11;;;;;;;;;28.20;21.40;;;;;13.53;69.54;100770.28;2012929;28;3591868;-75
2023/03/18 00:12:23;;;;;;;;;28.00;23.50;;;;;13.52;68.97;100763.28;1994547;28;2846629;-75
2023/03/18 00:13:35;;;;;;;;;25.00;21.00;;;;;13.50;69.64;100769.50;1990099;28;3573176;-75
2023/03/18 00:14:47;;;;;;;;;28.60;27.60;;;;;13.50;69.41;100769.50;2036163;28;3580424;-75
2023/03/18 00:16:03;;;;;;;;;25.60;20.60;;;;;13.50;69.24;100768.66;2036369;28;3582580;-75
2023/03/18 00:17:15;;;;;;;;;22.67;22.33;;;;;13.49;69.35;100766.91;1992036;28;3587737;-75
2023/03/18 00:18:28;;;;;;;;;22.67;20.33;;;;;13.47;69.54;100769.63;2024653;28;3567965;-75
2023/03/18 00:19:38;;;;;;;;;22.50;21.00;;;;;13.47;69.09;100774.06;2017383;28;2838779;-75
2023/03/18 00:20:50;;;;;;;;;25.00;17.67;;;;;13.46;69.32;100777.59;2033971;28;3586679;-75
2023/03/18 00:22:02;;;;;;;;;23.60;19.40;;;;;13.45;69.28;100774.13;2036714;28;3552284;-75
2023/03/18 00:23:14;;;;;;;;;20.00;17.67;;;;;13.44;69.05;100775.03;2019707;28;3559613;-75
2023/03/18 00:24:27;;;;;;;;;25.40;17.20;;;;;13.44;69.03;100776.81;2034912;28;3577286;-75
2023/03/18 00:25:38;;;;;;;;;21.33;19.33;;;;;13.42;69.07;100771.63;2013519;28;3570528;-75
2023/03/18 00:26:50;;;;;;;;;16.33;16.33;;;;;13.42;69.19;100774.25;2032368;28;3548151;-75
2023/03/18 00:28:05;;;;;;;;;21.67;17.00;;;;;13.39;68.91;100772.63;2019889;28;3557529;-75
2023/03/18 00:29:15;;;;;;;;;18.50;17.50;;;;;13.39;68.85;100771.75;2017375;28;2813816;-75
2023/03/18 00:30:27;;;;;;;;;22.33;18.00;;;;;13.37;69.05;100769.19;2033833;28;3564816;-75
2023/03/18 00:31:39;;;;;;;;;17.00;15.67;;;;;13.36;69.22;100775.38;2029502;28;2808588;-75
2023/03/18 00:32:50;;;;;;;;;17.00;16.33;;;;;13.35;69.01;100775.47;2015305;28;3553369;-75
2023/03/18 00:34:01;;;;;;;;;17.00;15.00;;;;;13.34;68.97;100784.28;2030823;28;2800298;-75
2023/03/18 00:35:14;;;;;;;;;16.00;16.00;;;;;13.33;69.19;100772.03;2001763;28;2809682;-75
2023/03/18 00:36:25;;;;;;;;;17.33;15.00;;;;;13.32;68.93;100791.44;2012561;28;2802473;-75
2023/03/18 00:37:37;;;;;;;;;15.67;14.67;;;;;13.31;68.98;100789.72;2016054;28;2812873;-75
2023/03/18 00:38:49;;;;;;;;;17.00;17.00;;;;;13.30;69.05;100799.41;2015846;28;2808643;-75
2023/03/18 00:40:05;;;;;;;;;11.00;11.00;;;;;13.26;69.03;100801.31;1993500;28;2794013;-75
2023/03/18 00:41:16;;;;;;;;;17.00;16.00;;;;;13.26;68.92;100798.69;2015936;28;3549207;-75
2023/03/18 00:42:35;;;;;;;;;16.00;13.60;;;;;13.25;68.98;100794.34;2038333;28;3529397;-75
2023/03/18 00:43:53;;;;;;;;;17.00;14.50;;;;;13.23;68.79;100798.84;2015073;28;2810802;-75
2023/03/18 00:45:09;;;;;;;;;12.00;10.00;;;;;13.22;69.15;100794.47;1989830;28;2786722;-75
2023/03/18 00:46:29;;;;;;;;;17.00;15.33;;;;;13.21;69.21;100784.00;1993280;28;3548217;-75
2023/03/18 00:47:40;;;;;;;;;18.50;15.50;;;;;13.19;68.85;100781.41;2016016;28;2821100;-75
2023/03/18 00:48:58;;;;;;;;;14.43;14.43;;;;;13.19;69.15;100781.41;2029848;27;1829424;-75
2023/03/18 00:50:09;;;;;;;;;17.00;15.00;;;;;13.18;68.87;100778.84;2016218;28;2827357;-75
2023/03/18 00:51:23;;;;;;;;;21.00;18.33;;;;;13.16;68.85;100777.09;1983551;28;3571065;-74
2023/03/18 00:52:35;;;;;;;;;15.00;15.00;;;;;13.15;68.69;100770.13;2007256;28;2807547;-75
2023/03/18 00:53:49;;;;;;;;;17.67;16.33;;;;;13.14;68.97;100773.69;1991205;28;2823195;-75
2023/03/18 00:55:04;;;;;;;;;19.83;16.50;;;;;13.13;69.10;100771.13;2045607;28;1827416;-74
2023/03/18 00:56:16;;;;;;;;;16.00;16.00;;;;;13.12;68.89;100766.75;1992449;28;2806501;-75
2023/03/18 00:57:28;;;;;;;;;16.50;16.50;;;;;13.12;68.88;100759.72;1992379;28;2818022;-75
2023/03/18 00:58:39;;;;;;;;;21.00;14.50;;;;;13.10;68.79;100765.97;1995199;28;2821568;-75
2023/03/18 00:59:50;;;;;;;;;14.00;11.00;;;;;13.09;68.68;100764.28;1992217;28;2782562;-75
2023/03/18 01:01:03;;;;;;;;;20.67;16.33;;;;;13.08;68.62;100767.81;2020422;28;3553917;-75
2023/03/18 01:02:14;;;;;;;;;17.00;17.00;;;;;13.07;68.82;100764.31;2015343;28;2816925;-75
2023/03/18 01:03:25;;;;;;;;;16.50;16.50;;;;;13.07;68.98;100760.81;1995965;28;2816920;-75
2023/03/18 01:04:37;;;;;;;;;15.50;15.50;;;;;13.05;68.73;100768.81;2033349;28;2804476;-75
2023/03/18 01:05:50;;;;;;;;;18.00;15.67;;;;;13.02;68.55;100777.72;1993165;28;2804461;-75
2023/03/18 01:07:01;;;;;;;;;21.33;16.00;;;;;13.01;68.85;100773.34;2015710;28;2820150;-75
2023/03/18 01:08:12;;;;;;;;;23.00;17.00;;;;;13.01;68.96;100783.91;2015756;28;3557516;-75
2023/03/18 01:09:24;;;;;;;;;21.20;16.40;;;;;12.98;68.80;100788.47;2037830;28;3542976;-75
2023/03/18 01:10:37;;;;;;;;;24.20;17.60;;;;;12.96;68.74;100780.63;2037030;28;3559706;-75
2023/03/18 01:11:48;;;;;;;;;13.00;13.00;;;;;12.96;68.88;100782.41;2012557;28;2800287;-75
2023/03/18 01:12:59;;;;;;;;;20.00;17.50;;;;;12.94;69.03;100785.09;2002275;28;2826291;-75
2023/03/18 01:14:11;;;;;;;;;16.00;16.00;;;;;12.93;68.65;100781.63;2009130;28;3550224;-75
2023/03/18 01:15:24;;;;;;;;;16.00;16.00;;;;;12.92;69.12;100781.66;2029956;28;2815951;-75
2023/03/18 01:16:35;;;;;;;;;19.00;15.00;;;;;12.92;68.70;100794.84;2023063;27;2815949;-74
2023/03/18 01:17:49;;;;;;;;;18.00;16.67;;;;;12.91;68.79;100790.50;2052301;28;1837810;-75
2023/03/18 01:19:00;;;;;;;;;20.50;17.50;;;;;12.91;68.83;100790.50;1999075;28;2827341;-75
2023/03/18 01:20:16;;;;;;;;;16.67;15.67;;;;;12.91;68.83;100790.50;2032135;28;3553369;-75
2023/03/18 01:21:28;;;;;;;;;24.00;19.67;;;;;12.89;68.89;100795.84;2014481;28;3562747;-75
2023/03/18 01:22:41;;;;;;;;;22.33;18.33;;;;;12.89;68.79;100797.63;2058057;27;2831555;-75
2023/03/18 01:23:53;;;;;;;;;17.40;17.40;;;;;12.87;68.86;100791.53;2024911;27;3542902;-75
2023/03/18 01:25:04;;;;;;;;;15.50;15.50;;;;;12.87;68.56;100791.53;2024192;28;2813129;-75
2023/03/18 01:26:16;;;;;;;;;20.33;18.67;;;;;12.85;68.84;100782.84;1996298;28;3563791;-75
2023/03/18 01:27:27;;;;;;;;;15.80;14.60;;;;;12.83;68.54;100782.91;2027435;28;3532533;-75
2023/03/18 01:28:40;;;;;;;;;25.33;18.67;;;;;12.83;68.70;100781.16;2030613;28;3566899;-75
2023/03/18 01:29:51;;;;;;;;;19.33;16.00;;;;;12.82;68.65;100781.19;2016088;28;3550263;-75
2023/03/18 01:31:03;;;;;;;;;19.33;18.00;;;;;12.81;68.84;100783.00;2016000;28;3555434;-75
2023/03/18 01:32:15;;;;;;;;;17.60;17.20;;;;;12.79;68.65;100774.25;2026906;28;3556467;-74
2023/03/18 01:33:28;;;;;;;;;21.80;17.00;;;;;12.79;68.84;100774.25;2036407;28;2827345;-74
2023/03/18 01:34:40;;;;;;;;;19.67;16.00;;;;;12.79;68.59;100770.78;1990020;28;3553396;-74
2023/03/18 01:35:55;;;;;;;;;15.60;15.20;;;;;12.77;68.74;100769.97;2034007;28;2808548;-74
2023/03/18 01:37:08;;;;;;;;;5.33;3.17;;;;;12.75;68.85;100766.53;2020123;28;2733628;-74
2023/03/18 01:38:19;;;;;;;;;15.50;13.50;;;;;12.73;68.47;100765.75;1992761;28;2805432;-75
2023/03/18 01:39:30;;;;;;;;;17.25;14.75;;;;;12.72;68.68;100756.97;2019752;28;1831573;-75
2023/03/18 01:40:40;;;;;;;;;17.00;15.50;;;;;12.70;68.70;100758.81;1991131;28;2817344;-75
2023/03/18 01:41:52;;;;;;;;;14.50;13.50;;;;;12.69;68.75;100755.31;2009670;28;2797106;-75
2023/03/18 01:43:12;;;;;;;;;13.67;10.83;;;;;12.69;68.86;100751.84;2049091;28;2789800;-75
2023/03/18 01:44:24;;;;;;;;;14.00;12.00;;;;;12.66;68.73;100744.94;1992160;28;2786710;-75
2023/03/18 01:45:35;;;;;;;;;20.50;14.50;;;;;12.66;68.71;100754.63;2014803;28;2810672;-75
2023/03/18 01:46:48;;;;;;;;;16.00;14.00;;;;;12.65;68.35;100750.25;1992307;28;2805542;-75
2023/03/18 01:48:00;;;;;;;;;17.67;14.67;;;;;12.64;68.54;100753.81;2022053;27;2817942;-75
2023/03/18 01:49:24;;;;;;;;;16.20;13.20;;;;;12.63;69.13;100752.09;2033495;28;2811009;-74
2023/03/18 01:50:36;;;;;;;;;18.67;17.00;;;;;12.62;68.88;100750.41;1993384;28;2814850;-75
2023/03/18 01:52:11;;;;;;;;;13.83;13.33;;;;;12.60;68.96;100756.56;2045723;28;1826353;-75
2023/03/18 01:53:22;;;;;;;;;15.00;14.00;;;;;12.59;68.66;100765.41;1992346;28;2807558;-75
2023/03/18 01:54:40;;;;;;;;;19.00;14.50;;;;;12.59;68.95;100765.41;1997320;28;2824197;-75
2023/03/18 01:55:51;;;;;;;;;17.00;14.00;;;;;12.58;68.87;100774.25;1984896;28;2810031;-75
2023/03/18 01:57:02;;;;;;;;;13.50;12.50;;;;;12.57;68.70;100767.25;2005844;28;2807522;-75
2023/03/18 01:58:21;;;;;;;;;19.57;13.86;;;;;12.57;68.90;100769.88;2045880;28;1830529;-75
2023/03/18 01:59:37;;;;;;;;;13.50;13.50;;;;;12.56;68.91;100762.91;2015106;28;2796084;-75
2023/03/18 02:00:52;;;;;;;;;13.50;13.00;;;;;12.55;68.87;100760.31;1984614;28;2803501;-75
2023/03/18 02:02:08;;;;;;;;;12.25;9.25;;;;;12.56;68.67;100767.31;2023762;28;1837866;-75
2023/03/18 02:03:21;;;;;;;;;15.00;11.75;;;;;12.54;68.40;100764.75;2029405;28;1841908;-75
2023/03/18 02:04:39;;;;;;;;;10.00;10.00;;;;;12.55;68.57;100773.50;2015723;28;2782552;-75
2023/03/18 02:05:51;;;;;;;;;10.00;9.00;;;;;12.54;68.89;100772.66;2016229;28;2764859;-75
2023/03/18 02:07:02;;;;;;;;;13.50;11.50;;;;;12.53;68.58;100767.44;2015484;28;2797138;-75
2023/03/18 02:08:12;;;;;;;;;15.00;12.00;;;;;12.51;68.74;100770.16;2015491;28;2791922;-75
2023/03/18 02:09:23;;;;;;;;;13.67;10.00;;;;;12.49;68.67;100772.81;2005928;28;3510619;-75
2023/03/18 02:10:36;;;;;;;;;11.25;10.25;;;;;12.50;68.68;100773.69;2042426;28;1841987;-75
2023/03/18 02:11:48;;;;;;;;;12.00;10.00;;;;;12.48;68.78;100779.03;2014450;28;2785680;-75
2023/03/18 02:13:09;;;;;;;;;11.00;8.67;;;;;12.48;68.59;100771.13;2017404;28;3482560;-75
2023/03/18 02:14:22;;;;;;;;;9.00;8.50;;;;;12.47;68.43;100763.28;2017445;28;2744042;-75
2023/03/18 02:15:37;;;;;;;;;11.00;10.67;;;;;12.46;68.52;100770.34;2014962;28;3509606;-75
2023/03/18 02:16:58;;;;;;;;;11.67;9.67;;;;;12.46;68.84;100767.69;2008295;28;3498151;-75
2023/03/18 02:18:18;;;;;;;;;11.00;10.00;;;;;12.45;68.75;100770.38;2014349;28;2779490;-75
2023/03/18 02:19:42;;;;;;;;;10.50;10.50;;;;;12.44;68.66;100774.81;2015376;28;2774279;-75
2023/03/18 02:21:09;;;;;;;;;12.00;9.00;;;;;12.42;68.69;100776.63;2023745;28;2774238;-75
2023/03/18 02:22:30;;;;;;;;;14.00;12.00;;;;;12.42;68.70;100773.16;2015546;28;2791919;-75
2023/03/18 02:24:05;;;;;;;;;16.00;13.50;;;;;12.41;68.80;100780.19;1991509;28;2802716;-75
2023/03/18 02:25:16;;;;;;;;;11.00;11.00;;;;;12.39;68.64;100774.13;1991895;28;2787787;-75
2023/03/18 02:26:38;;;;;;;;;15.00;13.50;;;;;12.39;68.62;100774.13;2042878;27;2802937;-75
2023/03/18 02:28:02;;;;;;;;;14.33;12.33;;;;;12.38;68.60;100767.13;2023017;28;1830518;-75
2023/03/18 02:29:17;;;;;;;;;12.00;11.00;;;;;12.36;68.70;100772.47;1991329;28;2799229;-75
2023/03/18 02:30:36;;;;;;;;;15.50;13.83;;;;;12.34;68.80;100758.50;2023710;28;1820620;-75
2023/03/18 02:31:48;;;;;;;;;13.00;11.00;;;;;12.35;68.70;100756.72;1992306;28;2777360;-74
2023/03/18 02:33:00;;;;;;;;;13.50;13.50;;;;;12.34;68.63;100763.78;2013883;28;2788821;-75
2023/03/18 02:34:12;;;;;;;;;15.00;13.50;;;;;12.34;68.83;100762.91;1992602;28;2804485;-75
2023/03/18 02:35:23;;;;;;;;;12.00;12.00;;;;;12.32;68.53;100762.97;2010630;28;2788798;-75
2023/03/18 02:36:35;;;;;;;;;15.00;12.50;;;;;12.31;68.97;100763.91;2015376;28;2791919;-75
2023/03/18 02:37:48;;;;;;;;;13.83;13.50;;;;;12.31;68.50;100755.13;2046512;28;1831659;-75
2023/03/18 02:38:59;;;;;;;;;16.50;13.00;;;;;12.30;68.73;100762.16;1991881;28;2819045;-75
2023/03/18 02:40:18;;;;;;;;;15.33;12.33;;;;;12.30;68.66;100759.53;1995502;28;3487766;-75
2023/03/18 02:41:32;;;;;;;;;12.00;11.00;;;;;12.29;68.62;100760.47;2015648;28;2796113;-75
2023/03/18 02:42:45;;;;;;;;;14.25;12.25;;;;;12.28;68.85;100761.38;2005727;28;1840979;-74
2023/03/18 02:43:59;;;;;;;;;11.67;11.00;;;;;12.27;68.90;100757.88;2047468;28;1827388;-75
2023/03/18 02:45:30;;;;;;;;;13.50;13.00;;;;;12.27;68.78;100767.59;1993974;28;2783624;-75
2023/03/18 02:46:54;;;;;;;;;12.00;11.00;;;;;12.26;68.45;100772.00;2015597;28;2796097;-75
2023/03/18 02:48:07;;;;;;;;;13.50;11.50;;;;;12.25;68.63;100770.25;1992431;28;2792988;-74
2023/03/18 02:49:19;;;;;;;;;11.00;11.00;;;;;12.25;68.88;100767.63;1993203;28;2793027;-75
2023/03/18 02:50:30;;;;;;;;;11.00;10.00;;;;;12.25;68.98;100769.41;2017112;28;2782587;-74
2023/03/18 02:51:40;;;;;;;;;13.00;11.50;;;;;12.25;68.98;100774.66;2028421;28;2797130;-74
2023/03/18 02:52:51;;;;;;;;;10.00;10.00;;;;;12.24;68.76;100770.34;2036051;28;2795050;-75
2023/03/18 02:54:09;;;;;;;;;12.00;12.00;;;;;12.26;68.70;100777.25;2035786;28;2805470;-75
2023/03/18 02:55:22;;;;;;;;;13.17;11.67;;;;;12.25;69.38;100772.91;2023440;28;1831636;-74
2023/03/18 02:56:33;;;;;;;;;11.00;8.75;;;;;12.26;69.00;100781.66;2008739;28;1842523;-74
2023/03/18 02:57:44;;;;;;;;;11.33;10.00;;;;;12.26;69.21;100779.91;2015894;28;3513784;-74
2023/03/18 02:58:55;;;;;;;;;15.00;10.00;;;;;12.27;69.26;100781.59;2025561;28;2797169;-74
2023/03/18 03:00:07;;;;;;;;;8.50;8.50;;;;;12.26;69.20;100785.16;2049959;28;1819076;-74
2023/03/18 03:01:18;;;;;;;;;10.00;10.00;;;;;12.27;69.05;100784.22;2009096;28;1841909;-74
2023/03/18 03:02:29;;;;;;;;;13.75;10.75;;;;;12.28;69.56;100779.81;2009311;28;1841486;-75
2023/03/18 03:03:40;;;;;;;;;13.00;10.00;;;;;12.27;69.01;100784.22;2032700;28;2784639;-75
2023/03/18 03:04:51;;;;;;;;;12.33;11.00;;;;;12.26;69.10;100785.16;2031202;28;3517904;-74
2023/03/18 03:06:03;;;;;;;;;11.75;11.25;;;;;12.27;68.99;100783.41;2044255;28;1836783;-74
2023/03/18 03:07:14;;;;;;;;;12.00;11.00;;;;;12.27;69.48;100781.59;2016602;28;2786725;-74
2023/03/18 03:08:27;;;;;;;;;13.00;10.25;;;;;12.28;69.25;100771.91;2030544;28;1848151;-75
2023/03/18 03:09:37;;;;;;;;;13.33;10.67;;;;;12.29;68.93;100773.66;2015119;28;3511716;-74
2023/03/18 03:10:49;;;;;;;;;11.67;8.00;;;;;12.29;69.03;100773.66;2027251;28;3486758;-74
2023/03/18 03:12:01;;;;;;;;;8.00;8.00;;;;;12.29;68.98;100780.69;2018866;28;2744133;-74
2023/03/18 03:13:12;;;;;;;;;11.67;8.00;;;;;12.31;69.10;100778.84;2017906;28;3476283;-75
2023/03/18 03:14:23;;;;;;;;;10.75;10.25;;;;;12.31;69.00;100774.44;2034827;28;1841986;-75
2023/03/18 03:15:35;;;;;;;;;14.50;11.00;;;;;12.32;69.20;100777.94;2015809;28;2789846;-75
2023/03/18 03:16:47;;;;;;;;;15.00;13.67;;;;;12.33;69.24;100779.63;1997793;28;3534612;-75
2023/03/18 03:17:58;;;;;;;;;14.00;10.00;;;;;12.32;68.81;100776.13;2021181;27;2789862;-74
2023/03/18 03:19:09;;;;;;;;;7.33;7.33;;;;;12.34;69.18;100779.59;2023361;28;2741955;-74
2023/03/18 03:20:21;;;;;;;;;13.25;11.25;;;;;12.34;69.07;100776.09;2036177;28;1846080;-74
2023/03/18 03:21:34;;;;;;;;;9.00;8.50;;;;;12.34;69.07;100784.88;2032808;28;1824276;-74
2023/03/18 03:22:45;;;;;;;;;13.33;10.33;;;;;12.34;69.29;100779.59;2015404;28;3512761;-74
2023/03/18 03:23:57;;;;;;;;;14.75;11.25;;;;;12.35;69.38;100775.16;2019583;28;1840949;-75
2023/03/18 03:25:09;;;;;;;;;14.00;11.00;;;;;12.35;69.23;100786.56;2016716;28;2789875;-75
2023/03/18 03:26:22;;;;;;;;;13.50;13.50;;;;;12.35;69.34;100785.69;2047501;28;1831608;-75
2023/03/18 03:27:33;;;;;;;;;12.00;10.00;;;;;12.36;69.17;100790.94;1992783;28;2790889;-75
2023/03/18 03:28:44;;;;;;;;;10.00;10.00;;;;;12.38;69.31;100796.13;2007030;28;2785641;-75
2023/03/18 03:29:55;;;;;;;;;14.00;14.00;;;;;12.36;69.13;100783.03;2030050;28;2803388;-75
2023/03/18 03:31:07;;;;;;;;;12.60;11.40;;;;;12.37;69.25;100784.72;2046544;28;1815958;-74
2023/03/18 03:32:18;;;;;;;;;14.67;12.33;;;;;12.39;69.17;100776.78;2016200;28;3523151;-74
2023/03/18 03:33:29;;;;;;;;;9.67;8.33;;;;;12.38;69.32;100775.91;2001856;28;2760773;-74
2023/03/18 03:34:40;;;;;;;;;11.67;11.67;;;;;12.38;69.34;100770.63;2030450;28;3510672;-75
2023/03/18 03:35:51;;;;;;;;;13.00;12.00;;;;;12.38;69.54;100778.53;2018744;28;2787889;-75
2023/03/18 03:37:02;;;;;;;;;12.50;10.00;;;;;12.40;69.31;100778.47;2017105;28;2785672;-74
2023/03/18 03:38:13;;;;;;;;;13.00;13.00;;;;;12.41;69.28;100781.97;2000277;28;2805439;-75
2023/03/18 03:39:24;;;;;;;;;9.75;9.75;;;;;12.41;69.11;100776.69;2020622;28;1842025;-75
2023/03/18 03:40:36;;;;;;;;;9.67;9.67;;;;;12.41;69.40;100784.59;2031294;28;1839322;-75
2023/03/18 03:41:47;;;;;;;;;13.50;11.00;;;;;12.40;69.08;100782.88;1993621;28;2791918;-75
2023/03/18 03:42:57;;;;;;;;;11.67;11.67;;;;;12.41;69.19;100788.13;1992367;28;3502298;-74
2023/03/18 03:44:08;;;;;;;;;9.00;8.33;;;;;12.41;69.10;100779.34;2028145;28;2734721;-75
2023/03/18 03:45:19;;;;;;;;;15.00;14.00;;;;;12.41;69.16;100787.25;2031621;28;2806517;-74
2023/03/18 03:46:30;;;;;;;;;12.00;7.00;;;;;12.42;69.27;100788.97;2024485;27;3476246;-74
2023/03/18 03:47:42;;;;;;;;;12.00;9.67;;;;;12.42;69.50;100789.81;2036737;27;3506506;-74
2023/03/18 03:48:53;;;;;;;;;12.25;9.00;;;;;12.41;69.56;100788.13;2039612;27;1841970;-74
2023/03/18 03:50:04;;;;;;;;;9.33;9.33;;;;;12.42;69.42;100787.19;2022154;27;2745076;-75
2023/03/18 03:51:16;;;;;;;;;17.00;12.75;;;;;12.43;69.13;100790.66;2029737;28;1841953;-75
2023/03/18 03:52:29;;;;;;;;;11.67;10.33;;;;;12.43;69.30;100788.03;2050933;28;1819653;-75
2023/03/18 03:53:44;;;;;;;;;13.33;10.83;;;;;12.44;69.25;100789.78;2032414;28;1819052;-74
2023/03/18 03:54:55;;;;;;;;;12.50;12.50;;;;;12.44;69.10;100797.69;1992907;28;2794036;-74
2023/03/18 03:56:07;;;;;;;;;11.25;10.25;;;;;12.44;69.13;100800.31;2022346;28;1839926;-74
2023/03/18 03:57:18;;;;;;;;;12.00;11.50;;;;;12.44;69.44;100800.31;2016085;28;2779443;-74
2023/03/18 03:58:29;;;;;;;;;15.50;14.00;;;;;12.45;69.15;100799.38;2007771;28;2806525;-74
2023/03/18 03:59:41;;;;;;;;;12.75;11.75;;;;;12.45;69.59;100802.00;2046539;28;1831568;-74
2023/03/18 04:00:51;;;;;;;;;16.00;13.00;;;;;12.45;69.47;100804.66;2014807;28;2813807;-74
2023/03/18 04:02:02;;;;;;;;;15.50;15.50;;;;;12.46;69.33;100809.00;2006461;28;2812162;-74
2023/03/18 04:03:14;;;;;;;;;14.80;12.60;;;;;12.46;69.50;100809.00;2022302;28;1827404;-74
2023/03/18 04:04:25;;;;;;;;;14.50;12.50;;;;;12.46;69.60;100814.28;2015572;28;2789851;-74
2023/03/18 04:05:36;;;;;;;;;14.00;12.50;;;;;12.45;69.24;100808.16;2032824;28;2800235;-75
2023/03/18 04:06:47;;;;;;;;;14.50;13.00;;;;;12.45;69.58;100808.16;2030330;28;2808647;-75
2023/03/18 04:07:59;;;;;;;;;12.00;12.00;;;;;12.45;69.26;100808.16;2034791;28;2794037;-75
2023/03/18 04:09:12;;;;;;;;;11.50;10.67;;;;;12.45;69.47;100804.66;2047544;28;1827420;-74
2023/03/18 04:10:22;;;;;;;;;13.50;12.00;;;;;12.45;69.49;100813.41;1994376;28;2801305;-75
2023/03/18 04:11:33;;;;;;;;;14.50;13.00;;;;;12.45;69.41;100807.28;2034091;28;2791997;-75
2023/03/18 04:12:46;;;;;;;;;12.50;10.00;;;;;12.46;69.61;100801.09;2021728;28;1839896;-75
2023/03/18 04:13:56;;;;;;;;;12.00;12.00;;;;;12.46;69.64;100806.38;2015069;28;2789837;-75
2023/03/18 04:15:08;;;;;;;;;14.67;12.00;;;;;12.46;69.71;100809.88;2024925;28;1844131;-75
2023/03/18 04:16:19;;;;;;;;;10.00;9.00;;;;;12.46;69.40;100804.59;1992022;28;2771110;-75
2023/03/18 04:17:30;;;;;;;;;11.00;11.00;;;;;12.46;69.49;100799.34;2034874;28;2770445;-75
2023/03/18 04:18:40;;;;;;;;;14.00;13.33;;;;;12.47;69.49;100802.84;2029674;28;3522100;-75
2023/03/18 04:19:52;;;;;;;;;15.00;13.00;;;;;12.47;69.60;100800.19;2033066;28;2785673;-74
2023/03/18 04:21:06;;;;;;;;;5.17;5.00;;;;;12.47;69.51;100800.19;2042989;28;2731515;-74
2023/03/18 04:22:18;;;;;;;;;19.75;15.50;;;;;12.48;69.40;100804.53;2029021;28;1851291;-74
2023/03/18 04:23:32;;;;;;;;;12.67;12.67;;;;;12.48;69.47;100801.91;2047537;28;1824249;-75
2023/03/18 04:24:45;;;;;;;;;13.33;11.00;;;;;12.48;69.70;100799.25;2026281;28;1823247;-75
2023/03/18 04:25:56;;;;;;;;;11.50;11.50;;;;;12.46;69.87;100801.09;1993097;28;2782559;-75
2023/03/18 04:27:07;;;;;;;;;12.50;10.00;;;;;12.47;69.38;100805.47;2033622;28;2781518;-75
2023/03/18 04:28:18;;;;;;;;;15.00;13.00;;;;;12.47;69.57;100806.31;2028050;28;2784654;-75
2023/03/18 04:29:29;;;;;;;;;9.00;8.67;;;;;12.47;69.65;100811.56;2008539;28;3458539;-75
2023/03/18 04:30:40;;;;;;;;;13.50;13.50;;;;;12.47;69.63;100810.75;2014624;28;2810710;-75
2023/03/18 04:31:51;;;;;;;;;14.00;14.00;;;;;12.46;69.31;100809.88;2008270;28;2816932;-75
2023/03/18 04:33:02;;;;;;;;;14.50;14.00;;;;;12.46;69.75;100806.38;2010733;28;2797615;-75
2023/03/18 04:34:13;;;;;;;;;8.33;8.00;;;;;12.47;69.78;100808.09;2056760;27;1805468;-75
2023/03/18 04:35:24;;;;;;;;;15.00;14.00;;;;;12.47;69.71;100805.47;2008379;28;3527321;-75
2023/03/18 04:36:35;;;;;;;;;12.00;10.00;;;;;12.47;69.65;100800.19;2031737;28;2781897;-75
2023/03/18 04:37:46;;;;;;;;;14.00;10.00;;;;;12.47;69.60;100800.19;2027150;28;3514786;-74
2023/03/18 04:38:57;;;;;;;;;12.67;12.67;;;;;12.45;69.65;100800.25;2023634;28;3526625;-74
2023/03/18 04:40:09;;;;;;;;;13.50;13.00;;;;;12.47;69.83;100802.84;2025953;28;2798187;-74
2023/03/18 04:41:20;;;;;;;;;13.25;11.50;;;;;12.46;69.40;100809.00;2031728;28;1824271;-74
2023/03/18 04:42:31;;;;;;;;;10.50;10.50;;;;;12.47;69.58;100816.00;2014628;28;2791966;-74
2023/03/18 04:43:43;;;;;;;;;13.00;12.00;;;;;12.47;69.51;100821.28;2027972;28;2789831;-74
2023/03/18 04:44:53;;;;;;;;;13.50;10.00;;;;;12.46;69.45;100819.56;2014483;28;2784631;-74
2023/03/18 04:46:04;;;;;;;;;15.00;12.00;;;;;12.47;69.64;100821.28;2033562;28;2788808;-75
2023/03/18 04:47:15;;;;;;;;;14.00;13.00;;;;;12.47;69.31;100826.56;2035410;28;2792292;-75
2023/03/18 04:48:27;;;;;;;;;10.00;10.00;;;;;12.47;69.91;100823.94;2018370;27;3509582;-75
2023/03/18 04:49:38;;;;;;;;;15.50;13.00;;;;;12.47;70.19;100829.19;2018966;27;2789823;-75
2023/03/18 04:50:48;;;;;;;;;13.33;11.33;;;;;12.47;69.62;100830.03;2027512;28;3506464;-75
2023/03/18 04:52:01;;;;;;;;;11.25;11.25;;;;;12.46;69.68;100824.81;2039865;28;1835868;-75
2023/03/18 04:53:11;;;;;;;;;13.50;13.50;;;;;12.46;69.95;100824.81;2015482;28;2795102;-75
2023/03/18 04:54:22;;;;;;;;;12.67;12.00;;;;;12.47;69.87;100826.56;2019402;28;1838834;-74
2023/03/18 04:55:34;;;;;;;;;14.00;10.00;;;;;12.46;69.92;100822.19;2012499;28;3494988;-75
2023/03/18 04:56:45;;;;;;;;;11.75;8.50;;;;;12.47;69.51;100816.00;2035500;28;1830496;-75
2023/03/18 04:57:59;;;;;;;;;12.33;10.33;;;;;12.48;69.45;100822.97;2047820;28;1822186;-75
2023/03/18 04:59:09;;;;;;;;;12.50;12.50;;;;;12.47;69.83;100816.84;1992479;28;2784650;-74
2023/03/18 05:00:21;;;;;;;;;13.50;10.00;;;;;12.48;69.79;100815.94;2007826;28;2791925;-75
2023/03/18 05:01:32;;;;;;;;;11.50;10.00;;;;;12.48;69.93;100815.94;2017678;28;2794601;-75
2023/03/18 05:02:44;;;;;;;;;11.00;11.00;;;;;12.48;69.48;100817.72;2016491;28;2776309;-75
2023/03/18 05:03:54;;;;;;;;;10.33;10.33;;;;;12.47;69.80;100808.94;2016175;28;3507527;-74
2023/03/18 05:05:07;;;;;;;;;11.00;9.00;;;;;12.48;69.86;100812.44;2038114;28;1824246;-74
2023/03/18 05:06:24;;;;;;;;;11.75;10.00;;;;;12.48;69.97;100810.66;2029702;28;1830489;-74
2023/03/18 05:07:37;;;;;;;;;8.00;8.00;;;;;12.48;69.85;100808.03;2043794;28;2732554;-74
2023/03/18 05:08:48;;;;;;;;;7.33;7.33;;;;;12.49;69.88;100808.91;1995675;28;2744027;-74
2023/03/18 05:09:59;;;;;;;;;8.00;8.00;;;;;12.48;69.89;100810.66;2029918;28;3448169;-75
2023/03/18 05:11:10;;;;;;;;;11.00;8.67;;;;;12.48;69.94;100804.53;2029984;28;3480463;-75
2023/03/18 05:12:21;;;;;;;;;8.67;8.33;;;;;12.48;69.82;100805.41;2048347;28;1825815;-74
2023/03/18 05:13:31;;;;;;;;;9.00;8.50;;;;;12.50;69.86;100810.59;1995307;28;2487716;-75
2023/03/18 05:14:43;;;;;;;;;9.00;9.00;;;;;12.49;69.70;100799.19;2035751;28;3450292;-75
2023/03/18 05:15:53;;;;;;;;;12.67;11.67;;;;;12.49;69.78;100804.47;2015734;28;3521067;-75
2023/03/18 05:17:04;;;;;;;;;6.67;6.00;;;;;12.51;70.00;100807.06;2027266;28;3451285;-75
2023/03/18 05:18:15;;;;;;;;;8.33;8.33;;;;;12.49;69.87;100799.19;2029380;28;3457564;-75
2023/03/18 05:19:27;;;;;;;;;6.67;6.67;;;;;12.49;69.71;100799.19;2035466;28;2738234;-75
2023/03/18 05:20:38;;;;;;;;;10.00;9.00;;;;;12.50;70.08;100805.31;1994051;28;2748221;-75
2023/03/18 05:21:48;;;;;;;;;8.33;8.00;;;;;12.50;69.84;100792.16;2017515;28;3457640;-74
2023/03/18 05:23:00;;;;;;;;;12.00;9.33;;;;;12.49;69.90;100799.19;2034656;28;3483589;-75
2023/03/18 05:24:11;;;;;;;;;11.67;8.33;;;;;12.49;70.05;100804.47;2017137;28;3464874;-75